sensor_id;sensor_type;location;lat;lon;timestamp;temperature;humidity
64501;DHT22;50874;24.150;-110.320;2023-09-19T00:00:43;36.30;97.20
64501;DHT22;50874;24.150;-110.320;2023-09-19T00:03:13;36.20;96.70
64501;DHT22;50874;24.150;-110.320;2023-09-19T00:05:40;36.10;96.70
64501;DHT22;50874;24.150;-110.320;2023-09-19T00:08:10;36.00;96.90
64501;DHT22;50874;24.150;-110.320;2023-09-19T00:10:39;36.00;97.10
64501;DHT22;50874;24.150;-110.320;2023-09-19T00:13:07;35.90;97.10
64501;DHT22;50874;24.150;-110.320;2023-09-19T00:15:41;35.70;97.80
64501;DHT22;50874;24.150;-110.320;2023-09-19T00:18:08;35.40;97.60
64501;DHT22;50874;24.150;-110.320;2023-09-19T00:20:38;35.30;97.80
64501;DHT22;50874;24.150;-110.320;2023-09-19T00:23:05;35.30;97.80
64501;DHT22;50874;24.150;-110.320;2023-09-19T00:25:34;35.30;97.50
64501;DHT22;50874;24.150;-110.320;2023-09-19T00:28:01;35.20;97.80
64501;DHT22;50874;24.150;-110.320;2023-09-19T00:30:28;35.10;97.80
64501;DHT22;50874;24.150;-110.320;2023-09-19T00:32:54;34.80;97.90
64501;DHT22;50874;24.150;-110.320;2023-09-19T00:35:22;34.70;97.90
64501;DHT22;50874;24.150;-110.320;2023-09-19T00:37:51;34.60;98.00
64501;DHT22;50874;24.150;-110.320;2023-09-19T00:40:18;34.70;98.10
64501;DHT22;50874;24.150;-110.320;2023-09-19T00:42:46;34.60;98.10
64501;DHT22;50874;24.150;-110.320;2023-09-19T00:45:14;34.40;98.40
64501;DHT22;50874;24.150;-110.320;2023-09-19T00:47:49;34.30;98.50
64501;DHT22;50874;24.150;-110.320;2023-09-19T00:50:18;34.10;98.30
64501;DHT22;50874;24.150;-110.320;2023-09-19T00:52:47;34.00;98.50
64501;DHT22;50874;24.150;-110.320;2023-09-19T00:55:16;34.00;98.90
64501;DHT22;50874;24.150;-110.320;2023-09-19T00:57:45;33.90;98.80
64501;DHT22;50874;24.150;-110.320;2023-09-19T01:00:13;33.90;98.90
64501;DHT22;50874;24.150;-110.320;2023-09-19T01:02:42;33.90;99.20
64501;DHT22;50874;24.150;-110.320;2023-09-19T01:05:10;33.80;99.70
64501;DHT22;50874;24.150;-110.320;2023-09-19T01:07:37;33.50;99.90
64501;DHT22;50874;24.150;-110.320;2023-09-19T01:10:15;33.30;99.90
64501;DHT22;50874;24.150;-110.320;2023-09-19T01:12:45;33.30;99.90
64501;DHT22;50874;24.150;-110.320;2023-09-19T01:18:11;33.10;99.90
64501;DHT22;50874;24.150;-110.320;2023-09-19T01:26:39;32.60;99.90
64501;DHT22;50874;24.150;-110.320;2023-09-19T01:31:46;32.50;99.90
64501;DHT22;50874;24.150;-110.320;2023-09-19T01:34:13;32.50;99.90
64501;DHT22;50874;24.150;-110.320;2023-09-19T01:36:40;32.30;99.90
64501;DHT22;50874;24.150;-110.320;2023-09-19T01:39:13;32.20;99.90
64501;DHT22;50874;24.150;-110.320;2023-09-19T01:50:11;32.00;99.90
64501;DHT22;50874;24.150;-110.320;2023-09-19T01:52:49;31.90;99.90
64501;DHT22;50874;24.150;-110.320;2023-09-19T01:55:19;31.80;99.90
64501;DHT22;50874;24.150;-110.320;2023-09-19T01:57:58;31.70;99.90
64501;DHT22;50874;24.150;-110.320;2023-09-19T02:00:28;31.60;99.90
64501;DHT22;50874;24.150;-110.320;2023-09-19T02:02:58;31.60;99.90
64501;DHT22;50874;24.150;-110.320;2023-09-19T02:05:26;31.50;99.90
64501;DHT22;50874;24.150;-110.320;2023-09-19T02:07:56;31.40;99.90
64501;DHT22;50874;24.150;-110.320;2023-09-19T02:10:24;31.40;99.90
64501;DHT22;50874;24.150;-110.320;2023-09-19T02:12:51;31.40;99.90
64501;DHT22;50874;24.150;-110.320;2023-09-19T02:15:18;31.30;99.90
64501;DHT22;50874;24.150;-110.320;2023-09-19T02:17:50;31.10;99.90
64501;DHT22;50874;24.150;-110.320;2023-09-19T02:20:17;31.00;99.90
64501;DHT22;50874;24.150;-110.320;2023-09-19T02:22:46;31.00;99.90
64501;DHT22;50874;24.150;-110.320;2023-09-19T02:25:12;30.90;99.90
64501;DHT22;50874;24.150;-110.320;2023-09-19T02:27:39;30.90;99.90
64501;DHT22;50874;24.150;-110.320;2023-09-19T02:30:06;30.70;99.90
64501;DHT22;50874;24.150;-110.320;2023-09-19T02:32:33;30.70;99.90
64501;DHT22;50874;24.150;-110.320;2023-09-19T02:35:02;30.70;99.90
64501;DHT22;50874;24.150;-110.320;2023-09-19T02:37:31;30.70;99.90
64501;DHT22;50874;24.150;-110.320;2023-09-19T02:39:59;30.70;99.90
64501;DHT22;50874;24.150;-110.320;2023-09-19T02:42:25;30.60;99.90
64501;DHT22;50874;24.150;-110.320;2023-09-19T02:44:52;30.50;99.90
64501;DHT22;50874;24.150;-110.320;2023-09-19T02:47:18;30.40;99.90
64501;DHT22;50874;24.150;-110.320;2023-09-19T02:49:45;30.40;99.90
64501;DHT22;50874;24.150;-110.320;2023-09-19T02:52:11;30.40;99.90
64501;DHT22;50874;24.150;-110.320;2023-09-19T02:54:40;30.40;99.90
64501;DHT22;50874;24.150;-110.320;2023-09-19T02:57:11;30.30;99.90
64501;DHT22;50874;24.150;-110.320;2023-09-19T02:59:37;30.30;99.90
64501;DHT22;50874;24.150;-110.320;2023-09-19T03:02:04;30.20;99.90
64501;DHT22;50874;24.150;-110.320;2023-09-19T03:04:31;30.10;99.90
64501;DHT22;50874;24.150;-110.320;2023-09-19T03:06:59;30.10;99.90
64501;DHT22;50874;24.150;-110.320;2023-09-19T03:09:27;30.10;99.90
64501;DHT22;50874;24.150;-110.320;2023-09-19T03:11:53;30.10;99.90
64501;DHT22;50874;24.150;-110.320;2023-09-19T03:14:20;30.10;99.90
64501;DHT22;50874;24.150;-110.320;2023-09-19T03:16:47;30.00;99.90
64501;DHT22;50874;24.150;-110.320;2023-09-19T03:19:13;30.00;99.90
64501;DHT22;50874;24.150;-110.320;2023-09-19T03:21:41;29.90;99.90
64501;DHT22;50874;24.150;-110.320;2023-09-19T03:24:07;29.90;99.90
64501;DHT22;50874;24.150;-110.320;2023-09-19T03:26:34;29.80;99.90
64501;DHT22;50874;24.150;-110.320;2023-09-19T03:29:04;29.80;99.90
64501;DHT22;50874;24.150;-110.320;2023-09-19T03:31:33;29.80;99.90
64501;DHT22;50874;24.150;-110.320;2023-09-19T03:34:03;29.70;99.90
64501;DHT22;50874;24.150;-110.320;2023-09-19T03:36:32;29.70;99.90
64501;DHT22;50874;24.150;-110.320;2023-09-19T03:38:59;29.60;99.90
64501;DHT22;50874;24.150;-110.320;2023-09-19T03:41:31;29.70;99.90
64501;DHT22;50874;24.150;-110.320;2023-09-19T03:43:59;29.60;99.90
64501;DHT22;50874;24.150;-110.320;2023-09-19T03:46:26;29.50;99.90
64501;DHT22;50874;24.150;-110.320;2023-09-19T03:48:52;29.50;99.90
64501;DHT22;50874;24.150;-110.320;2023-09-19T03:51:21;29.50;99.90
64501;DHT22;50874;24.150;-110.320;2023-09-19T03:53:47;29.50;99.90
64501;DHT22;50874;24.150;-110.320;2023-09-19T03:56:15;29.50;99.90
64501;DHT22;50874;24.150;-110.320;2023-09-19T03:58:41;29.40;99.90
64501;DHT22;50874;24.150;-110.320;2023-09-19T04:01:08;29.40;99.90
64501;DHT22;50874;24.150;-110.320;2023-09-19T04:03:35;29.30;99.90
64501;DHT22;50874;24.150;-110.320;2023-09-19T04:06:16;29.30;99.90
64501;DHT22;50874;24.150;-110.320;2023-09-19T04:08:43;29.20;99.90
64501;DHT22;50874;24.150;-110.320;2023-09-19T04:11:10;29.10;99.90
64501;DHT22;50874;24.150;-110.320;2023-09-19T04:13:37;29.10;99.90
64501;DHT22;50874;24.150;-110.320;2023-09-19T04:16:03;29.20;99.90
64501;DHT22;50874;24.150;-110.320;2023-09-19T04:18:30;29.10;99.90
64501;DHT22;50874;24.150;-110.320;2023-09-19T04:20:59;29.10;99.90
64501;DHT22;50874;24.150;-110.320;2023-09-19T04:23:29;29.10;99.90
64501;DHT22;50874;24.150;-110.320;2023-09-19T04:25:57;29.10;99.90
64501;DHT22;50874;24.150;-110.320;2023-09-19T04:28:23;29.00;99.90
64501;DHT22;50874;24.150;-110.320;2023-09-19T04:30:50;29.00;99.90
64501;DHT22;50874;24.150;-110.320;2023-09-19T04:33:16;29.00;99.90
64501;DHT22;50874;24.150;-110.320;2023-09-19T04:35:43;29.10;99.90
64501;DHT22;50874;24.150;-110.320;2023-09-19T04:38:10;29.10;99.90
64501;DHT22;50874;24.150;-110.320;2023-09-19T04:40:36;29.10;99.90
64501;DHT22;50874;24.150;-110.320;2023-09-19T04:43:05;29.00;99.90
64501;DHT22;50874;24.150;-110.320;2023-09-19T04:45:33;29.00;99.90
64501;DHT22;50874;24.150;-110.320;2023-09-19T04:48:00;28.90;99.90
64501;DHT22;50874;24.150;-110.320;2023-09-19T04:50:30;28.80;99.90
64501;DHT22;50874;24.150;-110.320;2023-09-19T04:53:00;28.80;99.90
64501;DHT22;50874;24.150;-110.320;2023-09-19T04:55:27;28.80;99.90
64501;DHT22;50874;24.150;-110.320;2023-09-19T04:57:53;28.70;99.90
64501;DHT22;50874;24.150;-110.320;2023-09-19T05:00:21;28.70;99.90
64501;DHT22;50874;24.150;-110.320;2023-09-19T05:02:55;28.60;99.90
64501;DHT22;50874;24.150;-110.320;2023-09-19T05:05:22;28.60;99.90
64501;DHT22;50874;24.150;-110.320;2023-09-19T05:07:50;28.50;99.90
64501;DHT22;50874;24.150;-110.320;2023-09-19T05:10:17;28.50;99.90
64501;DHT22;50874;24.150;-110.320;2023-09-19T05:12:47;28.60;99.90
64501;DHT22;50874;24.150;-110.320;2023-09-19T05:15:17;28.60;99.90
64501;DHT22;50874;24.150;-110.320;2023-09-19T05:17:50;28.50;99.90
64501;DHT22;50874;24.150;-110.320;2023-09-19T05:20:17;28.50;99.90
64501;DHT22;50874;24.150;-110.320;2023-09-19T05:23:04;28.40;99.90
64501;DHT22;50874;24.150;-110.320;2023-09-19T05:25:39;28.30;99.90
64501;DHT22;50874;24.150;-110.320;2023-09-19T05:28:06;28.30;99.90
64501;DHT22;50874;24.150;-110.320;2023-09-19T05:30:33;28.20;99.90
64501;DHT22;50874;24.150;-110.320;2023-09-19T05:33:03;28.20;99.90
64501;DHT22;50874;24.150;-110.320;2023-09-19T05:35:30;28.20;99.90
64501;DHT22;50874;24.150;-110.320;2023-09-19T05:37:57;28.20;99.90
64501;DHT22;50874;24.150;-110.320;2023-09-19T05:40:25;28.20;99.90
64501;DHT22;50874;24.150;-110.320;2023-09-19T05:42:51;28.20;99.90
64501;DHT22;50874;24.150;-110.320;2023-09-19T05:45:18;28.20;99.90
64501;DHT22;50874;24.150;-110.320;2023-09-19T05:47:53;28.20;99.90
64501;DHT22;50874;24.150;-110.320;2023-09-19T05:50:30;28.10;99.90
64501;DHT22;50874;24.150;-110.320;2023-09-19T05:52:58;28.10;99.90
64501;DHT22;50874;24.150;-110.320;2023-09-19T05:55:24;28.10;99.90
64501;DHT22;50874;24.150;-110.320;2023-09-19T05:57:52;28.10;99.90
64501;DHT22;50874;24.150;-110.320;2023-09-19T06:00:22;28.00;99.90
64501;DHT22;50874;24.150;-110.320;2023-09-19T06:02:55;28.00;99.90
64501;DHT22;50874;24.150;-110.320;2023-09-19T06:05:22;27.90;99.90
64501;DHT22;50874;24.150;-110.320;2023-09-19T06:07:49;27.90;99.90
64501;DHT22;50874;24.150;-110.320;2023-09-19T06:10:16;27.80;99.90
64501;DHT22;50874;24.150;-110.320;2023-09-19T06:12:43;27.80;99.90
64501;DHT22;50874;24.150;-110.320;2023-09-19T06:15:11;27.80;99.90
64501;DHT22;50874;24.150;-110.320;2023-09-19T06:17:52;27.70;99.90
64501;DHT22;50874;24.150;-110.320;2023-09-19T06:20:22;27.70;99.90
64501;DHT22;50874;24.150;-110.320;2023-09-19T06:22:50;27.70;99.90
64501;DHT22;50874;24.150;-110.320;2023-09-19T06:25:17;27.60;99.90
64501;DHT22;50874;24.150;-110.320;2023-09-19T06:27:52;27.60;99.90
64501;DHT22;50874;24.150;-110.320;2023-09-19T06:30:20;27.50;99.90
64501;DHT22;50874;24.150;-110.320;2023-09-19T06:32:47;27.50;99.90
64501;DHT22;50874;24.150;-110.320;2023-09-19T06:35:15;27.50;99.90
64501;DHT22;50874;24.150;-110.320;2023-09-19T06:37:43;27.50;99.90
64501;DHT22;50874;24.150;-110.320;2023-09-19T06:40:16;27.40;99.90
64501;DHT22;50874;24.150;-110.320;2023-09-19T06:42:43;27.40;99.90
64501;DHT22;50874;24.150;-110.320;2023-09-19T06:45:14;27.40;99.90
64501;DHT22;50874;24.150;-110.320;2023-09-19T06:47:45;27.30;99.90
64501;DHT22;50874;24.150;-110.320;2023-09-19T06:50:15;27.30;99.90
64501;DHT22;50874;24.150;-110.320;2023-09-19T06:52:46;27.30;99.90
64501;DHT22;50874;24.150;-110.320;2023-09-19T06:55:19;27.20;99.90
64501;DHT22;50874;24.150;-110.320;2023-09-19T06:57:49;27.20;99.90
64501;DHT22;50874;24.150;-110.320;2023-09-19T07:00:16;27.10;99.90
64501;DHT22;50874;24.150;-110.320;2023-09-19T07:03:06;27.10;99.90
64501;DHT22;50874;24.150;-110.320;2023-09-19T07:05:47;27.10;99.90
64501;DHT22;50874;24.150;-110.320;2023-09-19T07:08:14;27.00;99.90
64501;DHT22;50874;24.150;-110.320;2023-09-19T07:10:42;27.00;99.90
64501;DHT22;50874;24.150;-110.320;2023-09-19T07:13:15;27.00;99.90
64501;DHT22;50874;24.150;-110.320;2023-09-19T07:15:44;27.00;99.90
64501;DHT22;50874;24.150;-110.320;2023-09-19T07:18:14;26.90;99.90
64501;DHT22;50874;24.150;-110.320;2023-09-19T07:20:43;26.90;99.90
64501;DHT22;50874;24.150;-110.320;2023-09-19T07:23:18;26.90;99.90
64501;DHT22;50874;24.150;-110.320;2023-09-19T07:25:46;26.90;99.90
64501;DHT22;50874;24.150;-110.320;2023-09-19T07:28:15;26.90;99.90
64501;DHT22;50874;24.150;-110.320;2023-09-19T07:30:41;26.80;99.90
64501;DHT22;50874;24.150;-110.320;2023-09-19T07:33:08;26.80;99.90
64501;DHT22;50874;24.150;-110.320;2023-09-19T07:35:38;26.80;99.90
64501;DHT22;50874;24.150;-110.320;2023-09-19T07:38:08;26.70;99.90
64501;DHT22;50874;24.150;-110.320;2023-09-19T07:40:37;26.70;99.90
64501;DHT22;50874;24.150;-110.320;2023-09-19T07:43:03;26.70;99.90
64501;DHT22;50874;24.150;-110.320;2023-09-19T07:45:31;26.60;99.90
64501;DHT22;50874;24.150;-110.320;2023-09-19T07:47:58;26.60;99.90
64501;DHT22;50874;24.150;-110.320;2023-09-19T07:50:26;26.60;99.90
64501;DHT22;50874;24.150;-110.320;2023-09-19T07:52:52;26.60;99.90
64501;DHT22;50874;24.150;-110.320;2023-09-19T07:55:20;26.60;99.90
64501;DHT22;50874;24.150;-110.320;2023-09-19T07:57:49;26.60;99.90
64501;DHT22;50874;24.150;-110.320;2023-09-19T08:00:16;26.60;99.90
64501;DHT22;50874;24.150;-110.320;2023-09-19T08:02:43;26.50;99.90
64501;DHT22;50874;24.150;-110.320;2023-09-19T08:05:10;26.50;99.90
64501;DHT22;50874;24.150;-110.320;2023-09-19T08:07:42;26.50;99.90
64501;DHT22;50874;24.150;-110.320;2023-09-19T08:10:09;26.50;99.90
64501;DHT22;50874;24.150;-110.320;2023-09-19T08:12:43;26.50;99.90
64501;DHT22;50874;24.150;-110.320;2023-09-19T08:15:17;26.40;99.90
64501;DHT22;50874;24.150;-110.320;2023-09-19T08:17:46;26.40;99.90
64501;DHT22;50874;24.150;-110.320;2023-09-19T08:20:13;26.40;99.90
64501;DHT22;50874;24.150;-110.320;2023-09-19T08:22:53;26.40;99.90
64501;DHT22;50874;24.150;-110.320;2023-09-19T08:25:23;26.40;99.90
64501;DHT22;50874;24.150;-110.320;2023-09-19T08:27:51;26.40;99.90
64501;DHT22;50874;24.150;-110.320;2023-09-19T08:30:19;26.30;99.90
64501;DHT22;50874;24.150;-110.320;2023-09-19T08:32:50;26.40;99.90
64501;DHT22;50874;24.150;-110.320;2023-09-19T08:35:16;26.40;99.90
64501;DHT22;50874;24.150;-110.320;2023-09-19T08:37:43;26.40;99.90
64501;DHT22;50874;24.150;-110.320;2023-09-19T08:40:13;26.40;99.90
64501;DHT22;50874;24.150;-110.320;2023-09-19T08:42:53;26.30;99.90
64501;DHT22;50874;24.150;-110.320;2023-09-19T08:45:21;26.30;99.90
64501;DHT22;50874;24.150;-110.320;2023-09-19T08:50:49;26.30;99.90
64501;DHT22;50874;24.150;-110.320;2023-09-19T08:53:40;26.20;99.90
64501;DHT22;50874;24.150;-110.320;2023-09-19T08:56:10;26.20;99.90
64501;DHT22;50874;24.150;-110.320;2023-09-19T08:59:07;26.20;99.90
64501;DHT22;50874;24.150;-110.320;2023-09-19T09:01:35;26.20;99.90
64501;DHT22;50874;24.150;-110.320;2023-09-19T09:04:03;26.20;99.90
64501;DHT22;50874;24.150;-110.320;2023-09-19T09:06:35;26.20;99.90
64501;DHT22;50874;24.150;-110.320;2023-09-19T09:09:02;26.20;99.90
64501;DHT22;50874;24.150;-110.320;2023-09-19T09:11:29;26.10;99.90
64501;DHT22;50874;24.150;-110.320;2023-09-19T09:13:58;26.10;99.90
64501;DHT22;50874;24.150;-110.320;2023-09-19T09:16:25;26.10;99.90
64501;DHT22;50874;24.150;-110.320;2023-09-19T09:18:52;26.00;99.90
64501;DHT22;50874;24.150;-110.320;2023-09-19T09:21:21;26.00;99.90
64501;DHT22;50874;24.150;-110.320;2023-09-19T09:23:49;26.00;99.90
64501;DHT22;50874;24.150;-110.320;2023-09-19T09:26:16;26.00;99.90
64501;DHT22;50874;24.150;-110.320;2023-09-19T09:28:46;26.00;99.90
64501;DHT22;50874;24.150;-110.320;2023-09-19T09:31:25;26.00;99.90
64501;DHT22;50874;24.150;-110.320;2023-09-19T09:33:56;26.00;99.90
64501;DHT22;50874;24.150;-110.320;2023-09-19T09:36:40;26.00;99.90
64501;DHT22;50874;24.150;-110.320;2023-09-19T09:39:07;26.00;99.90
64501;DHT22;50874;24.150;-110.320;2023-09-19T09:41:51;26.00;99.90
64501;DHT22;50874;24.150;-110.320;2023-09-19T09:44:18;26.00;99.90
64501;DHT22;50874;24.150;-110.320;2023-09-19T09:46:48;25.90;99.90
64501;DHT22;50874;24.150;-110.320;2023-09-19T09:49:25;25.90;99.90
64501;DHT22;50874;24.150;-110.320;2023-09-19T09:52:07;25.90;99.90
64501;DHT22;50874;24.150;-110.320;2023-09-19T09:54:35;25.90;99.90
64501;DHT22;50874;24.150;-110.320;2023-09-19T09:57:06;25.90;99.90
64501;DHT22;50874;24.150;-110.320;2023-09-19T09:59:59;25.90;99.90
64501;DHT22;50874;24.150;-110.320;2023-09-19T10:02:42;25.80;99.90
64501;DHT22;50874;24.150;-110.320;2023-09-19T10:05:19;25.80;99.90
64501;DHT22;50874;24.150;-110.320;2023-09-19T10:07:48;25.80;99.90
64501;DHT22;50874;24.150;-110.320;2023-09-19T10:10:33;25.80;99.90
64501;DHT22;50874;24.150;-110.320;2023-09-19T10:13:13;25.80;99.90
64501;DHT22;50874;24.150;-110.320;2023-09-19T10:15:48;25.80;99.90
64501;DHT22;50874;24.150;-110.320;2023-09-19T10:18:21;25.70;99.90
64501;DHT22;50874;24.150;-110.320;2023-09-19T10:20:48;25.80;99.90
64501;DHT22;50874;24.150;-110.320;2023-09-19T10:23:17;25.80;99.90
64501;DHT22;50874;24.150;-110.320;2023-09-19T10:25:50;25.80;99.90
64501;DHT22;50874;24.150;-110.320;2023-09-19T10:28:17;25.70;99.90
64501;DHT22;50874;24.150;-110.320;2023-09-19T10:30:53;25.70;99.90
64501;DHT22;50874;24.150;-110.320;2023-09-19T10:33:22;25.70;99.90
64501;DHT22;50874;24.150;-110.320;2023-09-19T10:35:52;25.60;99.90
64501;DHT22;50874;24.150;-110.320;2023-09-19T10:38:29;25.60;99.90
64501;DHT22;50874;24.150;-110.320;2023-09-19T10:41:00;25.60;99.90
64501;DHT22;50874;24.150;-110.320;2023-09-19T10:43:32;25.60;99.90
64501;DHT22;50874;24.150;-110.320;2023-09-19T10:46:07;25.60;99.90
64501;DHT22;50874;24.150;-110.320;2023-09-19T10:48:37;25.60;99.90
64501;DHT22;50874;24.150;-110.320;2023-09-19T10:56:24;25.60;99.90
64501;DHT22;50874;24.150;-110.320;2023-09-19T10:59:16;25.60;99.90
64501;DHT22;50874;24.150;-110.320;2023-09-19T11:01:55;25.60;99.90
64501;DHT22;50874;24.150;-110.320;2023-09-19T11:07:08;25.60;99.90
64501;DHT22;50874;24.150;-110.320;2023-09-19T11:09:54;25.70;99.90
64501;DHT22;50874;24.150;-110.320;2023-09-19T11:27:15;25.70;99.90
64501;DHT22;50874;24.150;-110.320;2023-09-19T11:29:44;25.60;99.90
64501;DHT22;50874;24.150;-110.320;2023-09-19T11:32:10;25.60;99.90
64501;DHT22;50874;24.150;-110.320;2023-09-19T11:39:37;25.60;99.90
64501;DHT22;50874;24.150;-110.320;2023-09-19T11:48:15;25.60;99.90
64501;DHT22;50874;24.150;-110.320;2023-09-19T11:50:45;25.60;99.90
64501;DHT22;50874;24.150;-110.320;2023-09-19T11:53:13;25.60;99.90
64501;DHT22;50874;24.150;-110.320;2023-09-19T11:55:43;25.60;99.90
64501;DHT22;50874;24.150;-110.320;2023-09-19T11:58:10;25.60;99.90
64501;DHT22;50874;24.150;-110.320;2023-09-19T12:00:40;25.60;99.90
64501;DHT22;50874;24.150;-110.320;2023-09-19T12:03:11;25.60;99.90
64501;DHT22;50874;24.150;-110.320;2023-09-19T12:05:37;25.60;99.90
64501;DHT22;50874;24.150;-110.320;2023-09-19T12:08:04;25.60;99.90
64501;DHT22;50874;24.150;-110.320;2023-09-19T12:10:50;25.60;99.90
64501;DHT22;50874;24.150;-110.320;2023-09-19T12:13:21;25.60;99.90
64501;DHT22;50874;24.150;-110.320;2023-09-19T12:15:47;25.50;99.90
64501;DHT22;50874;24.150;-110.320;2023-09-19T12:18:30;25.50;99.90
64501;DHT22;50874;24.150;-110.320;2023-09-19T12:20:57;25.60;99.90
64501;DHT22;50874;24.150;-110.320;2023-09-19T12:23:24;25.60;99.90
64501;DHT22;50874;24.150;-110.320;2023-09-19T12:25:54;25.60;99.90
64501;DHT22;50874;24.150;-110.320;2023-09-19T12:28:26;25.60;99.90
64501;DHT22;50874;24.150;-110.320;2023-09-19T12:30:53;25.60;99.90
64501;DHT22;50874;24.150;-110.320;2023-09-19T12:33:21;25.60;99.90
64501;DHT22;50874;24.150;-110.320;2023-09-19T12:35:52;25.60;99.90
64501;DHT22;50874;24.150;-110.320;2023-09-19T12:38:27;25.50;99.90
64501;DHT22;50874;24.150;-110.320;2023-09-19T12:40:57;25.60;99.90
64501;DHT22;50874;24.150;-110.320;2023-09-19T12:43:29;25.50;99.90
64501;DHT22;50874;24.150;-110.320;2023-09-19T12:45:58;25.50;99.90
64501;DHT22;50874;24.150;-110.320;2023-09-19T12:48:26;25.50;99.90
64501;DHT22;50874;24.150;-110.320;2023-09-19T12:51:08;25.50;99.90
64501;DHT22;50874;24.150;-110.320;2023-09-19T12:53:44;25.50;99.90
64501;DHT22;50874;24.150;-110.320;2023-09-19T12:56:12;25.50;99.90
64501;DHT22;50874;24.150;-110.320;2023-09-19T13:01:23;25.50;99.90
64501;DHT22;50874;24.150;-110.320;2023-09-19T13:04:14;25.50;99.90
64501;DHT22;50874;24.150;-110.320;2023-09-19T13:06:49;25.50;99.90
64501;DHT22;50874;24.150;-110.320;2023-09-19T13:09:17;25.50;99.90
64501;DHT22;50874;24.150;-110.320;2023-09-19T13:11:44;25.50;99.90
64501;DHT22;50874;24.150;-110.320;2023-09-19T13:14:17;25.50;99.90
64501;DHT22;50874;24.150;-110.320;2023-09-19T13:17:03;25.50;99.90
64501;DHT22;50874;24.150;-110.320;2023-09-19T13:19:39;25.50;99.90
64501;DHT22;50874;24.150;-110.320;2023-09-19T13:22:40;25.20;99.90
64501;DHT22;50874;24.150;-110.320;2023-09-19T13:25:16;25.10;99.90
64501;DHT22;50874;24.150;-110.320;2023-09-19T13:27:53;25.00;99.90
64501;DHT22;50874;24.150;-110.320;2023-09-19T13:30:28;25.00;99.90
64501;DHT22;50874;24.150;-110.320;2023-09-19T13:33:10;24.90;99.90
64501;DHT22;50874;24.150;-110.320;2023-09-19T13:35:39;24.90;99.90
64501;DHT22;50874;24.150;-110.320;2023-09-19T13:38:07;24.90;99.90
64501;DHT22;50874;24.150;-110.320;2023-09-19T13:40:38;24.90;99.90
64501;DHT22;50874;24.150;-110.320;2023-09-19T13:43:05;24.90;99.90
64501;DHT22;50874;24.150;-110.320;2023-09-19T13:45:32;25.00;99.90
64501;DHT22;50874;24.150;-110.320;2023-09-19T13:48:00;25.00;99.90
64501;DHT22;50874;24.150;-110.320;2023-09-19T13:50:26;25.10;99.90
64501;DHT22;50874;24.150;-110.320;2023-09-19T13:52:55;25.10;99.90
64501;DHT22;50874;24.150;-110.320;2023-09-19T13:55:21;25.20;99.90
64501;DHT22;50874;24.150;-110.320;2023-09-19T13:57:48;25.30;99.90
64501;DHT22;50874;24.150;-110.320;2023-09-19T14:00:25;25.40;99.90
64501;DHT22;50874;24.150;-110.320;2023-09-19T14:02:51;25.60;99.90
64501;DHT22;50874;24.150;-110.320;2023-09-19T14:05:18;25.70;99.90
64501;DHT22;50874;24.150;-110.320;2023-09-19T14:07:45;26.00;99.90
64501;DHT22;50874;24.150;-110.320;2023-09-19T14:10:12;26.40;99.90
64501;DHT22;50874;24.150;-110.320;2023-09-19T14:12:38;27.00;99.90
64501;DHT22;50874;24.150;-110.320;2023-09-19T14:15:09;27.40;99.90
64501;DHT22;50874;24.150;-110.320;2023-09-19T14:17:37;28.00;99.90
64501;DHT22;50874;24.150;-110.320;2023-09-19T14:20:04;28.50;99.90
64501;DHT22;50874;24.150;-110.320;2023-09-19T14:22:32;29.00;99.90
64501;DHT22;50874;24.150;-110.320;2023-09-19T14:24:59;29.40;99.90
64501;DHT22;50874;24.150;-110.320;2023-09-19T14:27:26;29.80;99.90
64501;DHT22;50874;24.150;-110.320;2023-09-19T14:29:52;30.10;99.90
64501;DHT22;50874;24.150;-110.320;2023-09-19T14:32:18;30.40;99.90
64501;DHT22;50874;24.150;-110.320;2023-09-19T14:34:45;30.60;99.90
64501;DHT22;50874;24.150;-110.320;2023-09-19T14:37:12;30.90;99.90
64501;DHT22;50874;24.150;-110.320;2023-09-19T14:39:41;31.10;99.90
64501;DHT22;50874;24.150;-110.320;2023-09-19T14:42:11;31.20;99.90
64501;DHT22;50874;24.150;-110.320;2023-09-19T14:44:37;31.10;99.90
64501;DHT22;50874;24.150;-110.320;2023-09-19T14:47:04;31.20;99.90
64501;DHT22;50874;24.150;-110.320;2023-09-19T14:49:34;31.40;99.90
64501;DHT22;50874;24.150;-110.320;2023-09-19T14:52:01;31.80;99.90
64501;DHT22;50874;24.150;-110.320;2023-09-19T14:54:30;31.90;99.90
64501;DHT22;50874;24.150;-110.320;2023-09-19T14:56:57;32.20;99.90
64501;DHT22;50874;24.150;-110.320;2023-09-19T14:59:32;32.50;99.90
64501;DHT22;50874;24.150;-110.320;2023-09-19T15:02:00;32.60;99.90
64501;DHT22;50874;24.150;-110.320;2023-09-19T15:04:27;32.90;99.90
64501;DHT22;50874;24.150;-110.320;2023-09-19T15:06:54;33.20;99.90
64501;DHT22;50874;24.150;-110.320;2023-09-19T15:09:24;33.20;99.90
64501;DHT22;50874;24.150;-110.320;2023-09-19T15:11:55;33.30;99.90
64501;DHT22;50874;24.150;-110.320;2023-09-19T15:14:22;33.30;99.90
64501;DHT22;50874;24.150;-110.320;2023-09-19T15:16:51;33.40;99.90
64501;DHT22;50874;24.150;-110.320;2023-09-19T15:19:18;33.60;99.90
64501;DHT22;50874;24.150;-110.320;2023-09-19T15:21:44;33.90;99.90
64501;DHT22;50874;24.150;-110.320;2023-09-19T15:24:11;34.10;99.90
64501;DHT22;50874;24.150;-110.320;2023-09-19T15:26:37;34.10;99.90
64501;DHT22;50874;24.150;-110.320;2023-09-19T15:29:09;34.20;99.90
64501;DHT22;50874;24.150;-110.320;2023-09-19T15:31:36;34.50;99.90
64501;DHT22;50874;24.150;-110.320;2023-09-19T15:34:03;34.70;99.90
64501;DHT22;50874;24.150;-110.320;2023-09-19T15:36:31;34.90;99.90
64501;DHT22;50874;24.150;-110.320;2023-09-19T15:39:08;34.90;99.90
64501;DHT22;50874;24.150;-110.320;2023-09-19T15:41:41;35.00;99.90
64501;DHT22;50874;24.150;-110.320;2023-09-19T15:44:16;35.60;99.90
64501;DHT22;50874;24.150;-110.320;2023-09-19T15:46:43;35.50;99.90
64501;DHT22;50874;24.150;-110.320;2023-09-19T15:49:10;35.70;99.90
64501;DHT22;50874;24.150;-110.320;2023-09-19T15:51:37;35.90;99.90
64501;DHT22;50874;24.150;-110.320;2023-09-19T15:54:10;36.00;99.90
64501;DHT22;50874;24.150;-110.320;2023-09-19T15:56:40;36.30;99.90
64501;DHT22;50874;24.150;-110.320;2023-09-19T15:59:10;36.80;98.20
64501;DHT22;50874;24.150;-110.320;2023-09-19T16:01:42;36.90;98.70
64501;DHT22;50874;24.150;-110.320;2023-09-19T16:04:10;37.20;97.60